sensor_id;sensor_type;location;lat;lon;timestamp;P1;durP1;ratioP1;P2;durP2;ratioP2
9722;SDS011;4900;49.306;8.500;2023-04-03T00:01:23;3.40;;;3.10;;
9722;SDS011;4900;49.306;8.500;2023-04-03T00:03:49;3.20;;;2.90;;
9722;SDS011;4900;49.306;8.500;2023-04-03T00:06:15;3.17;;;2.87;;
9722;SDS011;4900;49.306;8.500;2023-04-03T00:08:40;3.27;;;2.90;;
9722;SDS011;4900;49.306;8.500;2023-04-03T00:11:06;2.83;;;2.53;;
9722;SDS011;4900;49.306;8.500;2023-04-03T00:13:32;3.70;;;2.83;;
9722;SDS011;4900;49.306;8.500;2023-04-03T00:15:58;3.10;;;2.80;;
9722;SDS011;4900;49.306;8.500;2023-04-03T00:18:24;3.43;;;3.10;;
9722;SDS011;4900;49.306;8.500;2023-04-03T00:20:50;3.20;;;2.90;;
9722;SDS011;4900;49.306;8.500;2023-04-03T00:23:15;3.70;;;3.03;;
9722;SDS011;4900;49.306;8.500;2023-04-03T00:25:42;3.30;;;2.93;;
9722;SDS011;4900;49.306;8.500;2023-04-03T00:28:07;3.37;;;2.80;;
9722;SDS011;4900;49.306;8.500;2023-04-03T00:30:33;3.87;;;2.80;;
9722;SDS011;4900;49.306;8.500;2023-04-03T00:32:59;3.50;;;3.07;;
9722;SDS011;4900;49.306;8.500;2023-04-03T00:35:25;3.97;;;3.00;;
9722;SDS011;4900;49.306;8.500;2023-04-03T00:37:51;4.80;;;3.43;;
9722;SDS011;4900;49.306;8.500;2023-04-03T00:40:18;3.30;;;2.90;;
9722;SDS011;4900;49.306;8.500;2023-04-03T00:42:45;4.77;;;3.20;;
9722;SDS011;4900;49.306;8.500;2023-04-03T00:47:38;3.33;;;3.03;;
9722;SDS011;4900;49.306;8.500;2023-04-03T00:50:05;3.73;;;2.97;;
9722;SDS011;4900;49.306;8.500;2023-04-03T00:52:32;3.20;;;2.87;;
9722;SDS011;4900;49.306;8.500;2023-04-03T00:54:59;3.83;;;3.00;;
9722;SDS011;4900;49.306;8.500;2023-04-03T00:57:29;5.23;;;3.07;;
9722;SDS011;4900;49.306;8.500;2023-04-03T00:59:57;3.73;;;3.03;;
9722;SDS011;4900;49.306;8.500;2023-04-03T01:02:26;4.37;;;3.20;;
9722;SDS011;4900;49.306;8.500;2023-04-03T01:04:52;3.20;;;2.90;;
9722;SDS011;4900;49.306;8.500;2023-04-03T01:07:26;3.90;;;2.83;;
9722;SDS011;4900;49.306;8.500;2023-04-03T01:09:58;4.27;;;3.10;;
9722;SDS011;4900;49.306;8.500;2023-04-03T01:12:27;3.83;;;3.27;;
9722;SDS011;4900;49.306;8.500;2023-04-03T01:15:21;5.00;;;3.60;;
9722;SDS011;4900;49.306;8.500;2023-04-03T01:17:55;3.47;;;3.10;;
9722;SDS011;4900;49.306;8.500;2023-04-03T01:25:41;3.20;;;2.90;;
9722;SDS011;4900;49.306;8.500;2023-04-03T01:28:13;3.90;;;2.90;;
9722;SDS011;4900;49.306;8.500;2023-04-03T01:33:33;4.97;;;3.37;;
9722;SDS011;4900;49.306;8.500;2023-04-03T01:35:58;4.43;;;3.90;;
9722;SDS011;4900;49.306;8.500;2023-04-03T01:38:24;8.13;;;5.53;;
9722;SDS011;4900;49.306;8.500;2023-04-03T01:40:50;8.07;;;6.17;;
9722;SDS011;4900;49.306;8.500;2023-04-03T01:43:16;6.60;;;5.57;;
9722;SDS011;4900;49.306;8.500;2023-04-03T01:45:41;8.53;;;6.57;;
9722;SDS011;4900;49.306;8.500;2023-04-03T01:48:07;7.83;;;5.63;;
9722;SDS011;4900;49.306;8.500;2023-04-03T01:50:33;8.40;;;5.80;;
9722;SDS011;4900;49.306;8.500;2023-04-03T01:52:59;8.03;;;5.73;;
9722;SDS011;4900;49.306;8.500;2023-04-03T01:55:24;6.30;;;5.43;;
9722;SDS011;4900;49.306;8.500;2023-04-03T01:57:50;6.83;;;6.13;;
9722;SDS011;4900;49.306;8.500;2023-04-03T02:00:15;8.00;;;7.20;;
9722;SDS011;4900;49.306;8.500;2023-04-03T02:02:41;8.10;;;6.50;;
9722;SDS011;4900;49.306;8.500;2023-04-03T02:05:07;8.37;;;6.40;;
9722;SDS011;4900;49.306;8.500;2023-04-03T02:07:32;9.07;;;6.20;;
9722;SDS011;4900;49.306;8.500;2023-04-03T02:09:58;8.50;;;6.20;;
9722;SDS011;4900;49.306;8.500;2023-04-03T02:12:23;6.73;;;5.30;;
9722;SDS011;4900;49.306;8.500;2023-04-03T02:14:49;8.23;;;5.83;;
9722;SDS011;4900;49.306;8.500;2023-04-03T02:17:14;7.77;;;5.33;;
9722;SDS011;4900;49.306;8.500;2023-04-03T02:19:40;8.10;;;5.80;;
9722;SDS011;4900;49.306;8.500;2023-04-03T02:22:06;7.10;;;4.73;;
9722;SDS011;4900;49.306;8.500;2023-04-03T02:24:31;6.17;;;4.60;;
9722;SDS011;4900;49.306;8.500;2023-04-03T02:26:57;5.07;;;4.00;;
9722;SDS011;4900;49.306;8.500;2023-04-03T02:29:23;5.97;;;4.20;;
9722;SDS011;4900;49.306;8.500;2023-04-03T02:31:49;5.20;;;4.20;;
9722;SDS011;4900;49.306;8.500;2023-04-03T02:34:15;4.37;;;3.50;;
9722;SDS011;4900;49.306;8.500;2023-04-03T02:36:41;3.83;;;3.50;;
9722;SDS011;4900;49.306;8.500;2023-04-03T02:39:06;3.73;;;3.30;;
9722;SDS011;4900;49.306;8.500;2023-04-03T02:41:32;4.50;;;3.40;;
9722;SDS011;4900;49.306;8.500;2023-04-03T02:44:01;6.53;;;3.70;;
9722;SDS011;4900;49.306;8.500;2023-04-03T02:46:28;5.33;;;4.23;;
9722;SDS011;4900;49.306;8.500;2023-04-03T02:48:53;3.97;;;3.47;;
9722;SDS011;4900;49.306;8.500;2023-04-03T02:51:19;5.93;;;4.17;;
9722;SDS011;4900;49.306;8.500;2023-04-03T02:53:44;4.40;;;3.83;;
9722;SDS011;4900;49.306;8.500;2023-04-03T02:56:10;5.63;;;4.30;;
9722;SDS011;4900;49.306;8.500;2023-04-03T02:58:35;5.63;;;4.30;;
9722;SDS011;4900;49.306;8.500;2023-04-03T03:01:01;8.67;;;5.00;;
9722;SDS011;4900;49.306;8.500;2023-04-03T03:03:27;6.27;;;5.13;;
9722;SDS011;4900;49.306;8.500;2023-04-03T03:06:06;6.33;;;4.57;;
9722;SDS011;4900;49.306;8.500;2023-04-03T03:08:34;5.40;;;4.90;;
9722;SDS011;4900;49.306;8.500;2023-04-03T03:11:00;6.50;;;5.10;;
9722;SDS011;4900;49.306;8.500;2023-04-03T03:13:26;5.30;;;4.80;;
9722;SDS011;4900;49.306;8.500;2023-04-03T03:15:51;6.50;;;5.00;;
9722;SDS011;4900;49.306;8.500;2023-04-03T03:18:17;6.43;;;5.00;;
9722;SDS011;4900;49.306;8.500;2023-04-03T03:20:43;5.87;;;5.10;;
9722;SDS011;4900;49.306;8.500;2023-04-03T03:23:08;6.80;;;4.90;;
9722;SDS011;4900;49.306;8.500;2023-04-03T03:25:37;5.83;;;4.60;;
9722;SDS011;4900;49.306;8.500;2023-04-03T03:28:03;5.33;;;4.33;;
9722;SDS011;4900;49.306;8.500;2023-04-03T03:30:29;5.60;;;4.00;;
9722;SDS011;4900;49.306;8.500;2023-04-03T03:32:55;5.10;;;3.90;;
9722;SDS011;4900;49.306;8.500;2023-04-03T03:35:20;4.97;;;3.47;;
9722;SDS011;4900;49.306;8.500;2023-04-03T03:37:46;3.93;;;3.40;;
9722;SDS011;4900;49.306;8.500;2023-04-03T03:40:12;5.17;;;3.50;;
9722;SDS011;4900;49.306;8.500;2023-04-03T03:42:38;4.23;;;3.00;;
9722;SDS011;4900;49.306;8.500;2023-04-03T03:45:04;3.83;;;3.30;;
9722;SDS011;4900;49.306;8.500;2023-04-03T03:47:30;3.90;;;3.00;;
9722;SDS011;4900;49.306;8.500;2023-04-03T03:49:55;3.97;;;3.03;;
9722;SDS011;4900;49.306;8.500;2023-04-03T03:52:21;3.30;;;2.97;;
9722;SDS011;4900;49.306;8.500;2023-04-03T03:54:46;5.17;;;3.10;;
9722;SDS011;4900;49.306;8.500;2023-04-03T03:57:11;3.37;;;3.00;;
9722;SDS011;4900;49.306;8.500;2023-04-03T03:59:37;3.43;;;3.10;;
9722;SDS011;4900;49.306;8.500;2023-04-03T04:02:02;4.53;;;3.50;;
9722;SDS011;4900;49.306;8.500;2023-04-03T04:04:28;3.73;;;3.33;;
9722;SDS011;4900;49.306;8.500;2023-04-03T04:06:53;3.67;;;3.00;;
9722;SDS011;4900;49.306;8.500;2023-04-03T04:09:19;4.37;;;3.47;;
9722;SDS011;4900;49.306;8.500;2023-04-03T04:11:44;4.70;;;3.10;;
9722;SDS011;4900;49.306;8.500;2023-04-03T04:14:10;5.63;;;3.50;;
9722;SDS011;4900;49.306;8.500;2023-04-03T04:16:37;5.17;;;3.40;;
9722;SDS011;4900;49.306;8.500;2023-04-03T04:19:02;4.97;;;3.67;;
9722;SDS011;4900;49.306;8.500;2023-04-03T04:21:28;4.37;;;3.17;;
9722;SDS011;4900;49.306;8.500;2023-04-03T04:23:53;3.80;;;3.40;;
9722;SDS011;4900;49.306;8.500;2023-04-03T04:26:19;4.17;;;3.40;;
9722;SDS011;4900;49.306;8.500;2023-04-03T04:28:46;4.00;;;3.37;;
9722;SDS011;4900;49.306;8.500;2023-04-03T04:31:11;3.57;;;3.17;;
9722;SDS011;4900;49.306;8.500;2023-04-03T04:33:37;5.83;;;3.80;;
9722;SDS011;4900;49.306;8.500;2023-04-03T04:36:02;4.47;;;3.37;;
9722;SDS011;4900;49.306;8.500;2023-04-03T04:38:28;4.40;;;3.43;;
9722;SDS011;4900;49.306;8.500;2023-04-03T04:40:53;4.37;;;3.70;;
9722;SDS011;4900;49.306;8.500;2023-04-03T04:43:19;3.93;;;3.53;;
9722;SDS011;4900;49.306;8.500;2023-04-03T04:45:44;4.83;;;3.80;;
9722;SDS011;4900;49.306;8.500;2023-04-03T04:48:10;3.87;;;3.30;;
9722;SDS011;4900;49.306;8.500;2023-04-03T04:50:35;5.33;;;3.57;;
9722;SDS011;4900;49.306;8.500;2023-04-03T04:53:01;5.57;;;3.50;;
9722;SDS011;4900;49.306;8.500;2023-04-03T04:55:26;4.83;;;3.70;;
9722;SDS011;4900;49.306;8.500;2023-04-03T04:57:52;4.43;;;3.53;;
9722;SDS011;4900;49.306;8.500;2023-04-03T05:00:17;3.77;;;3.40;;
9722;SDS011;4900;49.306;8.500;2023-04-03T05:02:43;4.37;;;3.40;;
9722;SDS011;4900;49.306;8.500;2023-04-03T05:05:09;4.03;;;3.40;;
9722;SDS011;4900;49.306;8.500;2023-04-03T05:07:34;4.10;;;3.50;;
9722;SDS011;4900;49.306;8.500;2023-04-03T05:10:00;4.53;;;3.23;;
9722;SDS011;4900;49.306;8.500;2023-04-03T05:12:27;4.20;;;3.47;;
9722;SDS011;4900;49.306;8.500;2023-04-03T05:14:53;5.83;;;3.67;;
9722;SDS011;4900;49.306;8.500;2023-04-03T05:17:18;4.80;;;3.83;;
9722;SDS011;4900;49.306;8.500;2023-04-03T05:19:44;5.50;;;3.90;;
9722;SDS011;4900;49.306;8.500;2023-04-03T05:22:09;4.13;;;3.73;;
9722;SDS011;4900;49.306;8.500;2023-04-03T05:24:35;4.17;;;3.73;;
9722;SDS011;4900;49.306;8.500;2023-04-03T05:27:00;5.30;;;3.70;;
9722;SDS011;4900;49.306;8.500;2023-04-03T05:29:26;4.47;;;4.03;;
9722;SDS011;4900;49.306;8.500;2023-04-03T05:31:51;5.33;;;3.70;;
9722;SDS011;4900;49.306;8.500;2023-04-03T05:34:17;4.33;;;3.87;;
9722;SDS011;4900;49.306;8.500;2023-04-03T05:36:42;3.90;;;3.20;;
9722;SDS011;4900;49.306;8.500;2023-04-03T05:39:08;4.30;;;3.80;;
9722;SDS011;4900;49.306;8.500;2023-04-03T05:41:34;5.03;;;3.90;;
9722;SDS011;4900;49.306;8.500;2023-04-03T05:43:59;4.30;;;3.93;;
9722;SDS011;4900;49.306;8.500;2023-04-03T05:46:25;5.70;;;4.00;;
9722;SDS011;4900;49.306;8.500;2023-04-03T05:48:51;4.53;;;3.80;;
9722;SDS011;4900;49.306;8.500;2023-04-03T05:51:28;4.93;;;4.10;;
9722;SDS011;4900;49.306;8.500;2023-04-03T05:54:00;4.20;;;3.57;;
9722;SDS011;4900;49.306;8.500;2023-04-03T05:56:37;4.80;;;3.97;;
9722;SDS011;4900;49.306;8.500;2023-04-03T05:59:03;5.13;;;4.03;;
9722;SDS011;4900;49.306;8.500;2023-04-03T06:01:29;5.50;;;3.80;;
9722;SDS011;4900;49.306;8.500;2023-04-03T06:03:55;4.53;;;3.90;;
9722;SDS011;4900;49.306;8.500;2023-04-03T06:06:20;5.53;;;4.10;;
9722;SDS011;4900;49.306;8.500;2023-04-03T06:08:47;4.00;;;3.60;;
9722;SDS011;4900;49.306;8.500;2023-04-03T06:11:12;4.77;;;3.80;;
9722;SDS011;4900;49.306;8.500;2023-04-03T06:13:38;4.23;;;3.80;;
9722;SDS011;4900;49.306;8.500;2023-04-03T06:16:04;5.77;;;3.70;;
9722;SDS011;4900;49.306;8.500;2023-04-03T06:18:30;4.80;;;3.83;;
9722;SDS011;4900;49.306;8.500;2023-04-03T06:20:56;4.37;;;3.73;;
9722;SDS011;4900;49.306;8.500;2023-04-03T06:23:23;5.83;;;3.80;;
9722;SDS011;4900;49.306;8.500;2023-04-03T06:25:48;5.17;;;3.77;;
9722;SDS011;4900;49.306;8.500;2023-04-03T06:28:14;6.00;;;4.00;;
9722;SDS011;4900;49.306;8.500;2023-04-03T06:30:39;3.80;;;3.40;;
9722;SDS011;4900;49.306;8.500;2023-04-03T06:33:05;4.20;;;3.80;;
9722;SDS011;4900;49.306;8.500;2023-04-03T06:35:30;6.03;;;3.70;;
9722;SDS011;4900;49.306;8.500;2023-04-03T06:37:56;5.03;;;3.60;;
9722;SDS011;4900;49.306;8.500;2023-04-03T06:40:23;4.90;;;4.00;;
9722;SDS011;4900;49.306;8.500;2023-04-03T06:42:50;6.07;;;4.00;;
9722;SDS011;4900;49.306;8.500;2023-04-03T06:45:16;4.80;;;3.70;;
9722;SDS011;4900;49.306;8.500;2023-04-03T06:47:42;5.43;;;4.17;;
9722;SDS011;4900;49.306;8.500;2023-04-03T06:50:09;5.07;;;4.40;;
9722;SDS011;4900;49.306;8.500;2023-04-03T06:52:36;5.07;;;3.97;;
9722;SDS011;4900;49.306;8.500;2023-04-03T06:55:02;4.77;;;3.60;;
9722;SDS011;4900;49.306;8.500;2023-04-03T06:57:27;4.63;;;3.63;;
9722;SDS011;4900;49.306;8.500;2023-04-03T06:59:53;5.03;;;3.57;;
9722;SDS011;4900;49.306;8.500;2023-04-03T07:02:19;4.47;;;3.90;;
9722;SDS011;4900;49.306;8.500;2023-04-03T07:04:45;3.37;;;3.03;;
9722;SDS011;4900;49.306;8.500;2023-04-03T07:07:11;3.40;;;3.10;;
9722;SDS011;4900;49.306;8.500;2023-04-03T07:09:37;5.93;;;3.17;;
9722;SDS011;4900;49.306;8.500;2023-04-03T07:12:02;4.97;;;3.40;;
9722;SDS011;4900;49.306;8.500;2023-04-03T07:14:27;3.73;;;2.77;;
9722;SDS011;4900;49.306;8.500;2023-04-03T07:16:53;4.13;;;2.90;;
9722;SDS011;4900;49.306;8.500;2023-04-03T07:19:18;3.13;;;2.83;;
9722;SDS011;4900;49.306;8.500;2023-04-03T07:21:44;3.53;;;2.90;;
9722;SDS011;4900;49.306;8.500;2023-04-03T07:24:09;3.77;;;2.70;;
9722;SDS011;4900;49.306;8.500;2023-04-03T07:26:37;3.23;;;2.73;;
9722;SDS011;4900;49.306;8.500;2023-04-03T07:29:04;4.33;;;3.07;;
9722;SDS011;4900;49.306;8.500;2023-04-03T07:31:30;4.00;;;2.80;;
9722;SDS011;4900;49.306;8.500;2023-04-03T07:33:56;4.20;;;3.00;;
9722;SDS011;4900;49.306;8.500;2023-04-03T07:36:22;3.43;;;2.90;;
9722;SDS011;4900;49.306;8.500;2023-04-03T07:38:48;4.23;;;2.60;;
9722;SDS011;4900;49.306;8.500;2023-04-03T07:41:15;2.70;;;2.40;;
9722;SDS011;4900;49.306;8.500;2023-04-03T07:43:43;4.50;;;2.87;;
9722;SDS011;4900;49.306;8.500;2023-04-03T07:46:10;2.93;;;2.30;;
9722;SDS011;4900;49.306;8.500;2023-04-03T07:48:35;3.77;;;2.30;;
9722;SDS011;4900;49.306;8.500;2023-04-03T07:51:01;3.28;;;2.28;;
9722;SDS011;4900;49.306;8.500;2023-04-03T07:53:28;4.40;;;2.30;;
9722;SDS011;4900;49.306;8.500;2023-04-03T07:55:53;3.03;;;2.03;;
9722;SDS011;4900;49.306;8.500;2023-04-03T07:58:21;3.63;;;2.05;;
9722;SDS011;4900;49.306;8.500;2023-04-03T08:00:46;3.17;;;1.98;;
9722;SDS011;4900;49.306;8.500;2023-04-03T08:03:13;2.30;;;2.10;;
9722;SDS011;4900;49.306;8.500;2023-04-03T08:05:42;2.88;;;2.10;;
9722;SDS011;4900;49.306;8.500;2023-04-03T08:08:11;3.78;;;2.08;;
9722;SDS011;4900;49.306;8.500;2023-04-03T08:10:38;2.63;;;2.08;;
9722;SDS011;4900;49.306;8.500;2023-04-03T08:13:03;4.07;;;2.28;;
9722;SDS011;4900;49.306;8.500;2023-04-03T08:15:30;3.33;;;2.05;;
9722;SDS011;4900;49.306;8.500;2023-04-03T08:17:56;3.13;;;2.17;;
9722;SDS011;4900;49.306;8.500;2023-04-03T08:20:22;2.72;;;2.00;;
9722;SDS011;4900;49.306;8.500;2023-04-03T08:22:47;3.88;;;2.25;;
9722;SDS011;4900;49.306;8.500;2023-04-03T08:25:13;3.05;;;1.98;;
9722;SDS011;4900;49.306;8.500;2023-04-03T08:27:39;2.10;;;1.90;;
9722;SDS011;4900;49.306;8.500;2023-04-03T08:30:04;2.38;;;1.75;;
9722;SDS011;4900;49.306;8.500;2023-04-03T08:32:32;3.05;;;2.00;;
9722;SDS011;4900;49.306;8.500;2023-04-03T08:34:58;3.20;;;1.92;;
9722;SDS011;4900;49.306;8.500;2023-04-03T08:37:24;2.65;;;1.92;;
9722;SDS011;4900;49.306;8.500;2023-04-03T08:39:49;2.38;;;1.90;;
9722;SDS011;4900;49.306;8.500;2023-04-03T08:42:17;2.15;;;1.80;;
9722;SDS011;4900;49.306;8.500;2023-04-03T08:45:12;3.22;;;1.92;;
9722;SDS011;4900;49.306;8.500;2023-04-03T08:50:23;2.60;;;2.00;;
9722;SDS011;4900;49.306;8.500;2023-04-03T08:52:55;3.42;;;2.00;;
9722;SDS011;4900;49.306;8.500;2023-04-03T08:58:00;2.83;;;1.98;;
9722;SDS011;4900;49.306;8.500;2023-04-03T09:00:29;2.97;;;1.98;;
9722;SDS011;4900;49.306;8.500;2023-04-03T09:03:02;3.03;;;2.03;;
9722;SDS011;4900;49.306;8.500;2023-04-03T09:08:14;2.50;;;1.77;;
9722;SDS011;4900;49.306;8.500;2023-04-03T09:10:48;2.30;;;1.90;;
9722;SDS011;4900;49.306;8.500;2023-04-03T09:16:04;2.53;;;1.67;;
9722;SDS011;4900;49.306;8.500;2023-04-03T09:18:45;2.28;;;1.70;;
9722;SDS011;4900;49.306;8.500;2023-04-03T09:21:20;2.20;;;1.60;;
9722;SDS011;4900;49.306;8.500;2023-04-03T09:23:53;3.28;;;1.90;;
9722;SDS011;4900;49.306;8.500;2023-04-03T09:29:07;3.78;;;1.80;;
9722;SDS011;4900;49.306;8.500;2023-04-03T09:31:37;1.88;;;1.60;;
9722;SDS011;4900;49.306;8.500;2023-04-03T09:34:08;2.70;;;1.70;;
9722;SDS011;4900;49.306;8.500;2023-04-03T09:36:44;2.90;;;1.60;;
9722;SDS011;4900;49.306;8.500;2023-04-03T09:39:21;2.70;;;1.40;;
9722;SDS011;4900;49.306;8.500;2023-04-03T09:44:26;2.40;;;1.65;;
9722;SDS011;4900;49.306;8.500;2023-04-03T09:47:19;2.28;;;1.48;;
9722;SDS011;4900;49.306;8.500;2023-04-03T09:52:48;1.85;;;1.63;;
9722;SDS011;4900;49.306;8.500;2023-04-03T09:55:17;2.13;;;1.40;;
9722;SDS011;4900;49.306;8.500;2023-04-03T09:57:51;2.90;;;1.73;;
9722;SDS011;4900;49.306;8.500;2023-04-03T10:02:51;2.38;;;1.50;;
9722;SDS011;4900;49.306;8.500;2023-04-03T10:05:37;2.60;;;1.70;;
9722;SDS011;4900;49.306;8.500;2023-04-03T10:10:38;2.45;;;1.70;;
9722;SDS011;4900;49.306;8.500;2023-04-03T10:13:05;1.65;;;1.33;;
9722;SDS011;4900;49.306;8.500;2023-04-03T10:16:12;1.85;;;1.50;;
9722;SDS011;4900;49.306;8.500;2023-04-03T10:18:42;2.25;;;1.50;;
9722;SDS011;4900;49.306;8.500;2023-04-03T10:21:24;2.00;;;1.52;;
9722;SDS011;4900;49.306;8.500;2023-04-03T10:23:56;2.67;;;1.70;;
9722;SDS011;4900;49.306;8.500;2023-04-03T10:29:24;2.50;;;1.67;;
9722;SDS011;4900;49.306;8.500;2023-04-03T10:35:03;2.95;;;1.67;;
9722;SDS011;4900;49.306;8.500;2023-04-03T10:46:21;3.00;;;1.77;;
9722;SDS011;4900;49.306;8.500;2023-04-03T10:51:22;3.05;;;1.60;;
9722;SDS011;4900;49.306;8.500;2023-04-03T10:56:48;2.65;;;1.48;;
9722;SDS011;4900;49.306;8.500;2023-04-03T10:59:25;3.42;;;1.30;;
9722;SDS011;4900;49.306;8.500;2023-04-03T11:02:06;3.08;;;1.70;;
9722;SDS011;4900;49.306;8.500;2023-04-03T11:04:37;2.15;;;1.50;;
9722;SDS011;4900;49.306;8.500;2023-04-03T11:09:44;2.05;;;1.50;;
9722;SDS011;4900;49.306;8.500;2023-04-03T11:12:56;2.65;;;1.60;;
9722;SDS011;4900;49.306;8.500;2023-04-03T11:15:15;3.15;;;1.73;;
9722;SDS011;4900;49.306;8.500;2023-04-03T11:17:54;2.00;;;1.60;;
9722;SDS011;4900;49.306;8.500;2023-04-03T11:20:29;1.70;;;1.40;;
9722;SDS011;4900;49.306;8.500;2023-04-03T11:23:05;2.85;;;1.70;;
9722;SDS011;4900;49.306;8.500;2023-04-03T11:25:38;2.90;;;1.70;;
9722;SDS011;4900;49.306;8.500;2023-04-03T11:28:16;3.10;;;1.67;;
9722;SDS011;4900;49.306;8.500;2023-04-03T11:30:50;2.17;;;1.55;;
9722;SDS011;4900;49.306;8.500;2023-04-03T11:36:24;2.10;;;1.60;;
9722;SDS011;4900;49.306;8.500;2023-04-03T11:38:54;2.50;;;1.40;;
9722;SDS011;4900;49.306;8.500;2023-04-03T11:41:26;2.70;;;2.10;;
9722;SDS011;4900;49.306;8.500;2023-04-03T11:43:57;2.22;;;1.83;;
9722;SDS011;4900;49.306;8.500;2023-04-03T11:47:07;2.63;;;1.90;;
9722;SDS011;4900;49.306;8.500;2023-04-03T11:58:09;2.15;;;1.67;;
9722;SDS011;4900;49.306;8.500;2023-04-03T12:05:49;3.58;;;1.80;;
9722;SDS011;4900;49.306;8.500;2023-04-03T12:24:23;2.30;;;1.70;;
9722;SDS011;4900;49.306;8.500;2023-04-03T12:45:20;2.83;;;1.83;;
9722;SDS011;4900;49.306;8.500;2023-04-03T12:47:49;3.42;;;1.73;;
9722;SDS011;4900;49.306;8.500;2023-04-03T12:50:20;2.50;;;1.83;;
9722;SDS011;4900;49.306;8.500;2023-04-03T12:52:51;2.38;;;1.50;;
9722;SDS011;4900;49.306;8.500;2023-04-03T12:55:22;2.75;;;1.70;;
9722;SDS011;4900;49.306;8.500;2023-04-03T12:57:48;2.47;;;1.80;;
9722;SDS011;4900;49.306;8.500;2023-04-03T13:02:46;2.30;;;1.80;;
9722;SDS011;4900;49.306;8.500;2023-04-03T13:05:17;3.20;;;1.95;;
9722;SDS011;4900;49.306;8.500;2023-04-03T13:07:44;2.10;;;1.77;;
9722;SDS011;4900;49.306;8.500;2023-04-03T13:10:15;2.53;;;1.80;;
9722;SDS011;4900;49.306;8.500;2023-04-03T13:12:53;3.55;;;1.90;;
9722;SDS011;4900;49.306;8.500;2023-04-03T13:17:53;3.00;;;1.75;;
9722;SDS011;4900;49.306;8.500;2023-04-03T13:20:21;3.78;;;2.10;;
9722;SDS011;4900;49.306;8.500;2023-04-03T13:25:23;3.47;;;2.10;;
9722;SDS011;4900;49.306;8.500;2023-04-03T13:27:51;3.28;;;1.95;;
9722;SDS011;4900;49.306;8.500;2023-04-03T13:30:21;2.00;;;1.80;;
9722;SDS011;4900;49.306;8.500;2023-04-03T13:32:51;3.72;;;1.90;;
9722;SDS011;4900;49.306;8.500;2023-04-03T13:37:55;4.30;;;1.92;;
9722;SDS011;4900;49.306;8.500;2023-04-03T13:40:22;2.53;;;1.88;;
9722;SDS011;4900;49.306;8.500;2023-04-03T13:42:57;3.97;;;2.10;;
9722;SDS011;4900;49.306;8.500;2023-04-03T13:45:28;3.25;;;1.90;;
9722;SDS011;4900;49.306;8.500;2023-04-03T13:48:09;2.05;;;1.73;;
9722;SDS011;4900;49.306;8.500;2023-04-03T13:50:57;3.90;;;1.90;;
9722;SDS011;4900;49.306;8.500;2023-04-03T13:53:26;4.75;;;1.80;;
9722;SDS011;4900;49.306;8.500;2023-04-03T13:58:33;2.92;;;1.92;;
9722;SDS011;4900;49.306;8.500;2023-04-03T14:06:49;3.05;;;2.28;;
9722;SDS011;4900;49.306;8.500;2023-04-03T14:09:16;2.95;;;2.38;;
9722;SDS011;4900;49.306;8.500;2023-04-03T14:11:42;4.00;;;2.80;;
9722;SDS011;4900;49.306;8.500;2023-04-03T14:14:12;2.83;;;2.30;;
9722;SDS011;4900;49.306;8.500;2023-04-03T14:16:54;2.78;;;2.17;;
9722;SDS011;4900;49.306;8.500;2023-04-03T14:19:24;2.72;;;2.05;;
9722;SDS011;4900;49.306;8.500;2023-04-03T14:21:53;2.60;;;1.88;;
9722;SDS011;4900;49.306;8.500;2023-04-03T14:24:20;2.47;;;1.63;;
9722;SDS011;4900;49.306;8.500;2023-04-03T14:26:46;2.20;;;1.58;;
9722;SDS011;4900;49.306;8.500;2023-04-03T14:29:14;2.80;;;1.80;;
9722;SDS011;4900;49.306;8.500;2023-04-03T14:31:41;4.25;;;1.92;;
9722;SDS011;4900;49.306;8.500;2023-04-03T14:34:09;1.90;;;1.60;;
9722;SDS011;4900;49.306;8.500;2023-04-03T14:36:38;2.30;;;1.58;;
9722;SDS011;4900;49.306;8.500;2023-04-03T14:39:06;2.15;;;1.67;;
9722;SDS011;4900;49.306;8.500;2023-04-03T14:41:33;2.30;;;1.52;;
9722;SDS011;4900;49.306;8.500;2023-04-03T14:44:00;2.75;;;1.85;;
9722;SDS011;4900;49.306;8.500;2023-04-03T14:48:56;3.30;;;2.13;;
9722;SDS011;4900;49.306;8.500;2023-04-03T14:51:22;2.80;;;1.70;;
9722;SDS011;4900;49.306;8.500;2023-04-03T14:53:47;2.58;;;2.10;;
9722;SDS011;4900;49.306;8.500;2023-04-03T14:56:16;2.40;;;1.75;;
9722;SDS011;4900;49.306;8.500;2023-04-03T14:58:52;2.63;;;1.73;;
9722;SDS011;4900;49.306;8.500;2023-04-03T15:01:20;3.33;;;1.92;;
9722;SDS011;4900;49.306;8.500;2023-04-03T15:03:46;2.67;;;1.77;;
9722;SDS011;4900;49.306;8.500;2023-04-03T15:06:12;3.03;;;1.95;;
9722;SDS011;4900;49.306;8.500;2023-04-03T15:08:38;1.90;;;1.60;;
9722;SDS011;4900;49.306;8.500;2023-04-03T15:11:06;1.98;;;1.77;;
9722;SDS011;4900;49.306;8.500;2023-04-03T15:13:32;2.78;;;1.70;;
9722;SDS011;4900;49.306;8.500;2023-04-03T15:15:57;2.92;;;1.90;;
9722;SDS011;4900;49.306;8.500;2023-04-03T15:18:24;2.28;;;1.85;;
9722;SDS011;4900;49.306;8.500;2023-04-03T15:20:51;2.35;;;1.80;;
9722;SDS011;4900;49.306;8.500;2023-04-03T15:23:20;3.50;;;1.80;;
9722;SDS011;4900;49.306;8.500;2023-04-03T15:25:51;3.05;;;1.70;;
9722;SDS011;4900;49.306;8.500;2023-04-03T15:28:31;2.47;;;1.65;;
9722;SDS011;4900;49.306;8.500;2023-04-03T15:31:03;2.72;;;1.77;;
9722;SDS011;4900;49.306;8.500;2023-04-03T15:33:29;3.47;;;1.77;;
9722;SDS011;4900;49.306;8.500;2023-04-03T15:35:55;2.60;;;1.70;;
9722;SDS011;4900;49.306;8.500;2023-04-03T15:38:21;2.28;;;1.70;;
9722;SDS011;4900;49.306;8.500;2023-04-03T15:40:46;2.15;;;1.65;;
9722;SDS011;4900;49.306;8.500;2023-04-03T15:43:12;2.58;;;1.58;;
9722;SDS011;4900;49.306;8.500;2023-04-03T15:45:38;3.65;;;2.03;;
9722;SDS011;4900;49.306;8.500;2023-04-03T15:48:04;2.15;;;1.80;;
9722;SDS011;4900;49.306;8.500;2023-04-03T15:50:31;2.00;;;1.70;;
9722;SDS011;4900;49.306;8.500;2023-04-03T15:52:57;4.75;;;2.30;;
9722;SDS011;4900;49.306;8.500;2023-04-03T15:55:26;3.50;;;2.15;;
9722;SDS011;4900;49.306;8.500;2023-04-03T15:57:57;4.55;;;3.08;;
9722;SDS011;4900;49.306;8.500;2023-04-03T16:00:24;4.10;;;2.78;;
9722;SDS011;4900;49.306;8.500;2023-04-03T16:02:54;2.58;;;2.03;;
9722;SDS011;4900;49.306;8.500;2023-04-03T16:05:23;2.38;;;1.95;;
9722;SDS011;4900;49.306;8.500;2023-04-03T16:07:49;2.22;;;1.80;;
9722;SDS011;4900;49.306;8.500;2023-04-03T16:10:15;2.95;;;2.20;;
9722;SDS011;4900;49.306;8.500;2023-04-03T16:12:42;10.20;;;2.40;;
9722;SDS011;4900;49.306;8.500;2023-04-03T16:15:08;3.90;;;1.95;;
9722;SDS011;4900;49.306;8.500;2023-04-03T16:17:34;4.28;;;2.10;;
9722;SDS011;4900;49.306;8.500;2023-04-03T16:20:02;2.60;;;1.92;;
9722;SDS011;4900;49.306;8.500;2023-04-03T16:22:29;3.08;;;2.13;;
9722;SDS011;4900;49.306;8.500;2023-04-03T16:24:56;2.53;;;1.80;;
9722;SDS011;4900;49.306;8.500;2023-04-03T16:27:22;1.95;;;1.60;;
9722;SDS011;4900;49.306;8.500;2023-04-03T16:29:50;3.13;;;1.90;;
9722;SDS011;4900;49.306;8.500;2023-04-03T16:32:16;2.78;;;1.90;;
9722;SDS011;4900;49.306;8.500;2023-04-03T16:34:41;3.28;;;1.80;;
9722;SDS011;4900;49.306;8.500;2023-04-03T16:37:07;3.17;;;1.80;;
9722;SDS011;4900;49.306;8.500;2023-04-03T16:39:35;2.60;;;1.60;;
9722;SDS011;4900;49.306;8.500;2023-04-03T16:42:01;2.25;;;1.70;;
9722;SDS011;4900;49.306;8.500;2023-04-03T16:44:26;3.72;;;1.77;;
9722;SDS011;4900;49.306;8.500;2023-04-03T16:46:52;2.15;;;1.60;;
9722;SDS011;4900;49.306;8.500;2023-04-03T16:49:17;3.10;;;1.77;;
9722;SDS011;4900;49.306;8.500;2023-04-03T16:51:42;2.08;;;1.80;;
9722;SDS011;4900;49.306;8.500;2023-04-03T16:54:08;2.80;;;1.70;;
9722;SDS011;4900;49.306;8.500;2023-04-03T16:56:35;2.30;;;1.63;;
9722;SDS011;4900;49.306;8.500;2023-04-03T16:59:01;2.45;;;1.70;;
9722;SDS011;4900;49.306;8.500;2023-04-03T17:01:27;2.70;;;1.63;;
9722;SDS011;4900;49.306;8.500;2023-04-03T17:03:52;1.90;;;1.67;;
9722;SDS011;4900;49.306;8.500;2023-04-03T17:06:18;1.58;;;1.48;;
9722;SDS011;4900;49.306;8.500;2023-04-03T17:08:46;2.25;;;1.70;;
9722;SDS011;4900;49.306;8.500;2023-04-03T17:11:13;1.75;;;1.60;;
9722;SDS011;4900;49.306;8.500;2023-04-03T17:13:39;3.05;;;1.60;;
9722;SDS011;4900;49.306;8.500;2023-04-03T17:16:05;2.22;;;1.70;;
9722;SDS011;4900;49.306;8.500;2023-04-03T17:18:33;3.00;;;1.70;;
9722;SDS011;4900;49.306;8.500;2023-04-03T17:20:59;2.53;;;1.70;;
9722;SDS011;4900;49.306;8.500;2023-04-03T17:23:26;2.70;;;1.55;;
9722;SDS011;4900;49.306;8.500;2023-04-03T17:25:53;3.00;;;1.90;;
9722;SDS011;4900;49.306;8.500;2023-04-03T17:28:19;2.65;;;2.00;;
9722;SDS011;4900;49.306;8.500;2023-04-03T17:30:46;2.78;;;2.00;;